sensor_id;sensor_type;location;lat;lon;timestamp;pressure;altitude;pressure_sealevel;temperature;humidity
66381;BME280;53177;52.648;1.214;2023-04-08T00:00:12;101982.19;;;6.47;82.07
66381;BME280;53177;52.648;1.214;2023-04-08T00:02:37;101988.22;;;6.40;82.19
66381;BME280;53177;52.648;1.214;2023-04-08T00:05:03;101987.25;;;6.33;82.60
66381;BME280;53177;52.648;1.214;2023-04-08T00:07:29;101982.69;;;6.20;83.19
66381;BME280;53177;52.648;1.214;2023-04-08T00:09:54;101985.28;;;6.19;83.47
66381;BME280;53177;52.648;1.214;2023-04-08T00:12:20;101984.28;;;6.09;83.62
66381;BME280;53177;52.648;1.214;2023-04-08T00:14:46;101982.66;;;6.19;83.51
66381;BME280;53177;52.648;1.214;2023-04-08T00:17:11;101976.31;;;6.05;84.99
66381;BME280;53177;52.648;1.214;2023-04-08T00:19:37;101982.53;;;6.11;84.70
66381;BME280;53177;52.648;1.214;2023-04-08T00:22:02;101977.38;;;6.16;84.36
66381;BME280;53177;52.648;1.214;2023-04-08T00:24:28;101981.69;;;6.12;84.36
66381;BME280;53177;52.648;1.214;2023-04-08T00:26:53;101984.13;;;6.00;85.22
66381;BME280;53177;52.648;1.214;2023-04-08T00:29:18;101978.69;;;5.90;85.94
66381;BME280;53177;52.648;1.214;2023-04-08T00:31:44;101978.81;;;5.99;86.14
66381;BME280;53177;52.648;1.214;2023-04-08T00:34:09;101981.56;;;6.06;85.65
66381;BME280;53177;52.648;1.214;2023-04-08T00:36:35;101980.81;;;6.12;86.19
66381;BME280;53177;52.648;1.214;2023-04-08T00:39:01;101983.44;;;6.12;86.13
66381;BME280;53177;52.648;1.214;2023-04-08T00:41:28;101973.56;;;5.99;86.67
66381;BME280;53177;52.648;1.214;2023-04-08T00:43:53;101982.50;;;6.10;86.25
66381;BME280;53177;52.648;1.214;2023-04-08T00:46:20;101978.19;;;6.12;86.07
66381;BME280;53177;52.648;1.214;2023-04-08T00:48:46;101982.59;;;6.14;85.58
66381;BME280;53177;52.648;1.214;2023-04-08T00:51:12;101978.25;;;6.16;85.72
66381;BME280;53177;52.648;1.214;2023-04-08T00:53:37;101990.47;;;6.13;85.68
66381;BME280;53177;52.648;1.214;2023-04-08T00:56:03;101993.31;;;5.77;87.45
66381;BME280;53177;52.648;1.214;2023-04-08T00:58:28;101995.38;;;5.45;90.86
66381;BME280;53177;52.648;1.214;2023-04-08T01:01:04;101996.31;;;5.49;90.49
66381;BME280;53177;52.648;1.214;2023-04-08T01:03:52;101998.03;;;5.47;91.49
66381;BME280;53177;52.648;1.214;2023-04-08T01:06:40;102010.84;;;5.31;92.36
66381;BME280;53177;52.648;1.214;2023-04-08T01:09:11;102009.63;;;5.14;94.80
66381;BME280;53177;52.648;1.214;2023-04-08T01:11:41;102008.88;;;5.20;94.81
66381;BME280;53177;52.648;1.214;2023-04-08T01:14:08;102006.38;;;4.84;97.76
66381;BME280;53177;52.648;1.214;2023-04-08T01:16:37;102012.84;;;4.61;99.27
66381;BME280;53177;52.648;1.214;2023-04-08T01:19:07;102008.50;;;4.61;99.50
66381;BME280;53177;52.648;1.214;2023-04-08T01:21:35;102015.59;;;4.67;99.57
66381;BME280;53177;52.648;1.214;2023-04-08T01:24:18;102013.47;;;4.89;98.46
66381;BME280;53177;52.648;1.214;2023-04-08T01:26:44;102010.13;;;4.95;98.27
66381;BME280;53177;52.648;1.214;2023-04-08T01:29:11;102021.13;;;4.79;99.26
66381;BME280;53177;52.648;1.214;2023-04-08T01:31:38;102020.34;;;4.83;99.90
66381;BME280;53177;52.648;1.214;2023-04-08T01:34:06;102015.41;;;4.98;99.39
66381;BME280;53177;52.648;1.214;2023-04-08T01:36:32;102016.88;;;5.27;98.18
66381;BME280;53177;52.648;1.214;2023-04-08T01:39:02;102017.38;;;5.53;96.48
66381;BME280;53177;52.648;1.214;2023-04-08T01:41:30;102016.31;;;5.44;97.85
66381;BME280;53177;52.648;1.214;2023-04-08T01:43:57;102013.31;;;5.69;96.60
66381;BME280;53177;52.648;1.214;2023-04-08T01:46:23;102024.25;;;5.47;97.52
66381;BME280;53177;52.648;1.214;2023-04-08T01:48:50;102027.81;;;5.50;97.51
66381;BME280;53177;52.648;1.214;2023-04-08T01:51:16;102027.47;;;5.32;99.02
66381;BME280;53177;52.648;1.214;2023-04-08T01:53:42;102028.28;;;5.29;99.83
66381;BME280;53177;52.648;1.214;2023-04-08T01:56:11;102034.97;;;5.59;98.91
66381;BME280;53177;52.648;1.214;2023-04-08T01:58:40;102039.91;;;5.42;98.98
66381;BME280;53177;52.648;1.214;2023-04-08T02:01:10;102034.66;;;5.42;99.22
66381;BME280;53177;52.648;1.214;2023-04-08T02:03:37;102033.72;;;5.40;99.56
66381;BME280;53177;52.648;1.214;2023-04-08T02:06:02;102041.81;;;5.51;99.34
66381;BME280;53177;52.648;1.214;2023-04-08T02:08:28;102039.75;;;5.34;99.67
66381;BME280;53177;52.648;1.214;2023-04-08T02:10:53;102036.94;;;5.25;100.00
66381;BME280;53177;52.648;1.214;2023-04-08T02:13:19;102037.16;;;5.36;100.00
66381;BME280;53177;52.648;1.214;2023-04-08T02:15:51;102033.56;;;5.32;100.00
66381;BME280;53177;52.648;1.214;2023-04-08T02:18:24;102031.00;;;5.34;100.00
66381;BME280;53177;52.648;1.214;2023-04-08T02:21:02;102038.81;;;5.32;100.00
66381;BME280;53177;52.648;1.214;2023-04-08T02:23:32;102037.03;;;5.30;100.00
66381;BME280;53177;52.648;1.214;2023-04-08T02:26:00;102035.16;;;5.23;100.00
66381;BME280;53177;52.648;1.214;2023-04-08T02:28:27;102024.75;;;5.27;100.00
66381;BME280;53177;52.648;1.214;2023-04-08T02:30:56;102028.56;;;5.43;100.00
66381;BME280;53177;52.648;1.214;2023-04-08T02:33:22;102035.25;;;5.27;100.00
66381;BME280;53177;52.648;1.214;2023-04-08T02:35:49;102039.75;;;5.34;100.00
66381;BME280;53177;52.648;1.214;2023-04-08T02:38:15;102032.56;;;5.24;100.00
66381;BME280;53177;52.648;1.214;2023-04-08T02:40:41;102036.94;;;5.25;100.00
66381;BME280;53177;52.648;1.214;2023-04-08T02:43:06;102036.28;;;5.37;100.00
66381;BME280;53177;52.648;1.214;2023-04-08T02:45:37;102038.81;;;5.31;100.00
66381;BME280;53177;52.648;1.214;2023-04-08T02:48:03;102044.50;;;5.54;100.00
66381;BME280;53177;52.648;1.214;2023-04-08T02:50:29;102048.72;;;5.46;100.00
66381;BME280;53177;52.648;1.214;2023-04-08T02:52:55;102048.13;;;5.60;100.00
66381;BME280;53177;52.648;1.214;2023-04-08T02:55:20;102051.50;;;5.55;100.00
66381;BME280;53177;52.648;1.214;2023-04-08T02:57:46;102051.44;;;5.50;100.00
66381;BME280;53177;52.648;1.214;2023-04-08T03:00:14;102052.19;;;5.45;100.00
66381;BME280;53177;52.648;1.214;2023-04-08T03:02:40;102064.41;;;5.43;100.00
66381;BME280;53177;52.648;1.214;2023-04-08T03:05:06;102057.63;;;5.54;100.00
66381;BME280;53177;52.648;1.214;2023-04-08T03:07:32;102060.16;;;5.49;100.00
66381;BME280;53177;52.648;1.214;2023-04-08T03:09:57;102055.81;;;5.51;100.00
66381;BME280;53177;52.648;1.214;2023-04-08T03:12:23;102058.47;;;5.53;100.00
66381;BME280;53177;52.648;1.214;2023-04-08T03:14:49;102060.31;;;5.57;100.00
66381;BME280;53177;52.648;1.214;2023-04-08T03:17:15;102059.56;;;5.64;100.00
66381;BME280;53177;52.648;1.214;2023-04-08T03:19:40;102062.34;;;5.73;100.00
66381;BME280;53177;52.648;1.214;2023-04-08T03:22:06;102062.53;;;5.82;100.00
66381;BME280;53177;52.648;1.214;2023-04-08T03:24:33;102059.94;;;5.83;99.70
66381;BME280;53177;52.648;1.214;2023-04-08T03:26:59;102054.47;;;5.73;99.45
66381;BME280;53177;52.648;1.214;2023-04-08T03:29:25;102060.03;;;5.86;99.29
66381;BME280;53177;52.648;1.214;2023-04-08T03:31:51;102064.47;;;5.92;99.28
66381;BME280;53177;52.648;1.214;2023-04-08T03:34:16;102059.94;;;5.83;99.03
66381;BME280;53177;52.648;1.214;2023-04-08T03:36:42;102060.03;;;5.86;99.38
66381;BME280;53177;52.648;1.214;2023-04-08T03:39:07;102058.91;;;5.75;99.49
66381;BME280;53177;52.648;1.214;2023-04-08T03:41:32;102062.28;;;5.70;99.77
66381;BME280;53177;52.648;1.214;2023-04-08T03:43:58;102061.44;;;5.71;99.47
66381;BME280;53177;52.648;1.214;2023-04-08T03:46:23;102057.03;;;5.70;99.51
66381;BME280;53177;52.648;1.214;2023-04-08T03:48:48;102065.84;;;5.72;100.00
66381;BME280;53177;52.648;1.214;2023-04-08T03:51:14;102057.97;;;5.73;99.93
66381;BME280;53177;52.648;1.214;2023-04-08T03:53:39;102067.63;;;5.74;99.69
66381;BME280;53177;52.648;1.214;2023-04-08T03:56:05;102064.16;;;5.75;99.44
66381;BME280;53177;52.648;1.214;2023-04-08T03:58:31;102074.75;;;5.80;99.45
66381;BME280;53177;52.648;1.214;2023-04-08T04:00:56;102071.28;;;5.82;99.31
66381;BME280;53177;52.648;1.214;2023-04-08T04:03:22;102077.38;;;5.80;99.56
66381;BME280;53177;52.648;1.214;2023-04-08T04:05:47;102079.06;;;5.78;99.46
66381;BME280;53177;52.648;1.214;2023-04-08T04:08:13;102079.97;;;5.78;99.35
66381;BME280;53177;52.648;1.214;2023-04-08T04:10:38;102079.34;;;5.92;98.86
66381;BME280;53177;52.648;1.214;2023-04-08T04:13:03;102077.44;;;5.83;99.60
66381;BME280;53177;52.648;1.214;2023-04-08T04:15:30;102079.28;;;5.87;99.73
66381;BME280;53177;52.648;1.214;2023-04-08T04:17:55;102080.16;;;5.87;99.24
66381;BME280;53177;52.648;1.214;2023-04-08T04:20:21;102075.88;;;5.91;99.44
66381;BME280;53177;52.648;1.214;2023-04-08T04:22:47;102081.06;;;5.90;99.20
66381;BME280;53177;52.648;1.214;2023-04-08T04:25:12;102075.91;;;5.94;99.57
66381;BME280;53177;52.648;1.214;2023-04-08T04:27:38;102080.13;;;5.86;99.29
66381;BME280;53177;52.648;1.214;2023-04-08T04:30:04;102080.94;;;5.83;99.76
66381;BME280;53177;52.648;1.214;2023-04-08T04:32:30;102087.91;;;5.83;99.96
66381;BME280;53177;52.648;1.214;2023-04-08T04:34:55;102082.75;;;5.86;99.56
66381;BME280;53177;52.648;1.214;2023-04-08T04:37:21;102093.25;;;5.86;100.00
66381;BME280;53177;52.648;1.214;2023-04-08T04:39:46;102090.53;;;5.83;100.00
66381;BME280;53177;52.648;1.214;2023-04-08T04:42:11;102092.25;;;5.81;100.00
66381;BME280;53177;52.648;1.214;2023-04-08T04:44:37;102096.69;;;5.83;100.00
66381;BME280;53177;52.648;1.214;2023-04-08T04:47:04;102103.69;;;5.83;99.90
66381;BME280;53177;52.648;1.214;2023-04-08T04:49:33;102099.41;;;5.86;99.82
66381;BME280;53177;52.648;1.214;2023-04-08T04:52:05;102108.44;;;6.02;99.23
66381;BME280;53177;52.648;1.214;2023-04-08T04:54:33;102103.28;;;6.08;99.06
66381;BME280;53177;52.648;1.214;2023-04-08T04:57:02;102103.81;;;5.89;99.38
66381;BME280;53177;52.648;1.214;2023-04-08T04:59:28;102102.78;;;5.82;99.46
66381;BME280;53177;52.648;1.214;2023-04-08T05:01:53;102111.50;;;5.80;98.98
66381;BME280;53177;52.648;1.214;2023-04-08T05:04:27;102104.28;;;5.70;99.38
66381;BME280;53177;52.648;1.214;2023-04-08T05:06:59;102107.69;;;5.66;99.49
66381;BME280;53177;52.648;1.214;2023-04-08T05:09:25;102106.84;;;5.65;99.62
66381;BME280;53177;52.648;1.214;2023-04-08T05:11:50;102105.94;;;5.65;100.00
66381;BME280;53177;52.648;1.214;2023-04-08T05:14:16;102118.19;;;5.66;99.98
66381;BME280;53177;52.648;1.214;2023-04-08T05:16:41;102108.59;;;5.66;100.00
66381;BME280;53177;52.648;1.214;2023-04-08T05:19:07;102106.00;;;5.68;99.93
66381;BME280;53177;52.648;1.214;2023-04-08T05:21:32;102112.13;;;5.68;100.00
66381;BME280;53177;52.648;1.214;2023-04-08T05:23:57;102114.78;;;5.70;100.00
66381;BME280;53177;52.648;1.214;2023-04-08T05:26:23;102128.78;;;5.70;99.67
66381;BME280;53177;52.648;1.214;2023-04-08T05:28:49;102118.13;;;5.61;99.67
66381;BME280;53177;52.648;1.214;2023-04-08T05:31:15;102126.69;;;5.53;99.59
66381;BME280;53177;52.648;1.214;2023-04-08T05:33:41;102128.38;;;5.51;100.00
66381;BME280;53177;52.648;1.214;2023-04-08T05:36:06;102131.00;;;5.51;99.60
66381;BME280;53177;52.648;1.214;2023-04-08T05:38:32;102125.75;;;5.49;99.74
66381;BME280;53177;52.648;1.214;2023-04-08T05:40:57;102140.44;;;5.41;99.87
66381;BME280;53177;52.648;1.214;2023-04-08T05:43:22;102135.19;;;5.41;99.69
66381;BME280;53177;52.648;1.214;2023-04-08T05:45:48;102139.66;;;5.45;99.92
66381;BME280;53177;52.648;1.214;2023-04-08T05:48:13;102143.31;;;5.55;99.43
66381;BME280;53177;52.648;1.214;2023-04-08T05:50:39;102151.97;;;5.49;99.20
66381;BME280;53177;52.648;1.214;2023-04-08T05:53:04;102159.00;;;5.52;99.32
66381;BME280;53177;52.648;1.214;2023-04-08T05:55:30;102166.09;;;5.56;99.52
66381;BME280;53177;52.648;1.214;2023-04-08T05:57:55;102163.41;;;5.53;99.94
66381;BME280;53177;52.648;1.214;2023-04-08T06:00:21;102169.59;;;5.56;99.54
66381;BME280;53177;52.648;1.214;2023-04-08T06:02:47;102174.06;;;5.60;99.70
66381;BME280;53177;52.648;1.214;2023-04-08T06:05:12;102168.00;;;5.63;99.13
66381;BME280;53177;52.648;1.214;2023-04-08T06:07:38;102169.00;;;5.69;99.17
66381;BME280;53177;52.648;1.214;2023-04-08T06:10:03;102166.38;;;5.69;98.99
66381;BME280;53177;52.648;1.214;2023-04-08T06:12:30;102160.41;;;5.76;98.74
66381;BME280;53177;52.648;1.214;2023-04-08T06:14:56;102163.75;;;5.69;99.36
66381;BME280;53177;52.648;1.214;2023-04-08T06:17:21;102169.97;;;5.74;99.31
66381;BME280;53177;52.648;1.214;2023-04-08T06:19:46;102170.78;;;5.70;99.37
66381;BME280;53177;52.648;1.214;2023-04-08T06:22:12;102181.25;;;5.69;98.85
66381;BME280;53177;52.648;1.214;2023-04-08T06:24:37;102183.69;;;5.60;99.28
66381;BME280;53177;52.648;1.214;2023-04-08T06:27:03;102184.53;;;5.59;99.36
66381;BME280;53177;52.648;1.214;2023-04-08T06:29:28;102180.38;;;5.70;99.33
66381;BME280;53177;52.648;1.214;2023-04-08T06:31:54;102188.09;;;5.62;98.80
66381;BME280;53177;52.648;1.214;2023-04-08T06:34:20;102189.94;;;5.66;98.59
66381;BME280;53177;52.648;1.214;2023-04-08T06:36:45;102179.63;;;5.75;98.69
66381;BME280;53177;52.648;1.214;2023-04-08T06:39:10;102191.88;;;5.75;98.33
66381;BME280;53177;52.648;1.214;2023-04-08T06:41:36;102184.91;;;5.77;98.27
66381;BME280;53177;52.648;1.214;2023-04-08T06:44:01;102188.03;;;5.59;98.04
66381;BME280;53177;52.648;1.214;2023-04-08T06:46:26;102185.34;;;5.56;98.34
66381;BME280;53177;52.648;1.214;2023-04-08T06:48:52;102183.72;;;5.63;98.46
66381;BME280;53177;52.648;1.214;2023-04-08T06:51:17;102178.88;;;5.81;97.62
66381;BME280;53177;52.648;1.214;2023-04-08T06:53:42;102191.66;;;5.66;97.33
66381;BME280;53177;52.648;1.214;2023-04-08T06:56:08;102189.13;;;5.69;97.77
66381;BME280;53177;52.648;1.214;2023-04-08T06:58:33;102202.00;;;5.57;97.77
66381;BME280;53177;52.648;1.214;2023-04-08T07:00:59;102195.22;;;5.68;97.76
66381;BME280;53177;52.648;1.214;2023-04-08T07:03:25;102202.31;;;5.72;97.71
66381;BME280;53177;52.648;1.214;2023-04-08T07:05:51;102204.84;;;5.67;97.50
66381;BME280;53177;52.648;1.214;2023-04-08T07:08:16;102210.03;;;5.66;97.39
66381;BME280;53177;52.648;1.214;2023-04-08T07:10:42;102211.06;;;5.72;97.58
66381;BME280;53177;52.648;1.214;2023-04-08T07:13:07;102208.63;;;5.80;97.59
66381;BME280;53177;52.648;1.214;2023-04-08T07:15:32;102206.16;;;5.87;97.59
66381;BME280;53177;52.648;1.214;2023-04-08T07:17:58;102209.72;;;5.90;97.50
66381;BME280;53177;52.648;1.214;2023-04-08T07:20:25;102207.38;;;6.05;97.25
66381;BME280;53177;52.648;1.214;2023-04-08T07:22:51;102201.94;;;5.96;96.56
66381;BME280;53177;52.648;1.214;2023-04-08T07:25:16;102203.81;;;6.03;96.74
66381;BME280;53177;52.648;1.214;2023-04-08T07:27:42;102214.41;;;6.06;96.57
66381;BME280;53177;52.648;1.214;2023-04-08T07:30:07;102209.28;;;6.12;96.08
66381;BME280;53177;52.648;1.214;2023-04-08T07:32:33;102221.66;;;6.19;95.77
66381;BME280;53177;52.648;1.214;2023-04-08T07:34:59;102223.41;;;6.17;95.07
66381;BME280;53177;52.648;1.214;2023-04-08T07:37:26;102222.75;;;6.30;95.15
66381;BME280;53177;52.648;1.214;2023-04-08T07:39:51;102228.22;;;6.41;94.92
66381;BME280;53177;52.648;1.214;2023-04-08T07:42:17;102232.53;;;6.37;94.54
66381;BME280;53177;52.648;1.214;2023-04-08T07:44:43;102245.50;;;6.28;94.60
66381;BME280;53177;52.648;1.214;2023-04-08T07:47:09;102230.94;;;6.45;94.76
66381;BME280;53177;52.648;1.214;2023-04-08T07:49:35;102229.19;;;6.46;94.31
66381;BME280;53177;52.648;1.214;2023-04-08T07:52:01;102234.41;;;6.44;94.23
66381;BME280;53177;52.648;1.214;2023-04-08T07:54:26;102241.63;;;6.56;94.21
66381;BME280;53177;52.648;1.214;2023-04-08T07:56:52;102239.22;;;6.68;94.38
66381;BME280;53177;52.648;1.214;2023-04-08T07:59:17;102236.72;;;6.75;93.79
66381;BME280;53177;52.648;1.214;2023-04-08T08:01:42;102235.03;;;6.80;93.38
66381;BME280;53177;52.648;1.214;2023-04-08T08:04:08;102242.25;;;6.91;92.72
66381;BME280;53177;52.648;1.214;2023-04-08T08:06:33;102238.91;;;7.01;92.81
66381;BME280;53177;52.648;1.214;2023-04-08T08:08:59;102232.59;;;6.90;91.60
66381;BME280;53177;52.648;1.214;2023-04-08T08:11:25;102244.75;;;6.83;91.91
66381;BME280;53177;52.648;1.214;2023-04-08T08:13:53;102241.19;;;6.79;92.07
66381;BME280;53177;52.648;1.214;2023-04-08T08:16:19;102241.28;;;6.85;92.20
66381;BME280;53177;52.648;1.214;2023-04-08T08:18:44;102242.50;;;7.06;92.56
66381;BME280;53177;52.648;1.214;2023-04-08T08:21:09;102234.78;;;7.16;91.75
66381;BME280;53177;52.648;1.214;2023-04-08T08:23:35;102233.97;;;7.20;91.25
66381;BME280;53177;52.648;1.214;2023-04-08T08:26:05;102247.38;;;7.37;90.92
66381;BME280;53177;52.648;1.214;2023-04-08T08:28:31;102238.22;;;7.74;90.75
66381;BME280;53177;52.648;1.214;2023-04-08T08:30:57;102241.97;;;7.90;89.77
66381;BME280;53177;52.648;1.214;2023-04-08T08:33:24;102246.13;;;7.74;89.27
66381;BME280;53177;52.648;1.214;2023-04-08T08:35:49;102251.63;;;7.92;89.26
66381;BME280;53177;52.648;1.214;2023-04-08T08:38:15;102249.97;;;7.97;88.95
66381;BME280;53177;52.648;1.214;2023-04-08T08:40:42;102242.13;;;8.03;89.34
66381;BME280;53177;52.648;1.214;2023-04-08T08:43:08;102247.13;;;7.83;88.26
66381;BME280;53177;52.648;1.214;2023-04-08T08:45:38;102251.53;;;7.83;88.93
66381;BME280;53177;52.648;1.214;2023-04-08T08:48:04;102255.22;;;7.99;88.72
66381;BME280;53177;52.648;1.214;2023-04-08T08:50:30;102246.53;;;8.06;87.87
66381;BME280;53177;52.648;1.214;2023-04-08T08:52:55;102261.50;;;8.10;88.13
66381;BME280;53177;52.648;1.214;2023-04-08T08:55:21;102258.00;;;8.09;87.63
66381;BME280;53177;52.648;1.214;2023-04-08T08:57:49;102264.13;;;8.05;87.64
66381;BME280;53177;52.648;1.214;2023-04-08T09:00:16;102256.31;;;8.13;87.23
66381;BME280;53177;52.648;1.214;2023-04-08T09:02:42;102249.25;;;8.13;87.05
66381;BME280;53177;52.648;1.214;2023-04-08T09:05:08;102255.78;;;8.41;87.48
66381;BME280;53177;52.648;1.214;2023-04-08T09:07:37;102253.22;;;8.49;86.55
66381;BME280;53177;52.648;1.214;2023-04-08T09:10:06;102254.09;;;8.49;86.31
66381;BME280;53177;52.648;1.214;2023-04-08T09:12:32;102255.69;;;8.34;86.54
66381;BME280;53177;52.648;1.214;2023-04-08T09:15:06;102258.44;;;8.44;86.58
66381;BME280;53177;52.648;1.214;2023-04-08T09:17:37;102252.44;;;8.59;86.69
66381;BME280;53177;52.648;1.214;2023-04-08T09:20:11;102257.69;;;8.57;85.25
66381;BME280;53177;52.648;1.214;2023-04-08T09:22:59;102263.09;;;8.69;85.44
66381;BME280;53177;52.648;1.214;2023-04-08T09:25:30;102259.63;;;8.72;85.29
66381;BME280;53177;52.648;1.214;2023-04-08T09:27:59;102264.91;;;8.72;85.13
66381;BME280;53177;52.648;1.214;2023-04-08T09:30:26;102256.25;;;8.87;84.19
66381;BME280;53177;52.648;1.214;2023-04-08T09:32:54;102258.72;;;8.73;84.21
66381;BME280;53177;52.648;1.214;2023-04-08T09:35:20;102261.44;;;8.80;84.48
66381;BME280;53177;52.648;1.214;2023-04-08T09:37:46;102261.63;;;9.02;85.80
66381;BME280;53177;52.648;1.214;2023-04-08T09:40:14;102266.97;;;9.08;84.18
66381;BME280;53177;52.648;1.214;2023-04-08T09:42:44;102271.34;;;9.07;83.71
66381;BME280;53177;52.648;1.214;2023-04-08T09:45:10;102274.97;;;9.21;83.82
66381;BME280;53177;52.648;1.214;2023-04-08T09:47:55;102272.38;;;9.26;82.79
66381;BME280;53177;52.648;1.214;2023-04-08T09:50:27;102272.34;;;9.21;82.97
66381;BME280;53177;52.648;1.214;2023-04-08T09:53:19;102273.03;;;8.98;83.08
66381;BME280;53177;52.648;1.214;2023-04-08T09:55:49;102274.09;;;9.19;83.07
66381;BME280;53177;52.648;1.214;2023-04-08T09:58:35;102274.97;;;9.18;82.58
66381;BME280;53177;52.648;1.214;2023-04-08T10:01:04;102274.84;;;9.03;82.62
66381;BME280;53177;52.648;1.214;2023-04-08T10:03:36;102272.31;;;9.18;82.63
66381;BME280;53177;52.648;1.214;2023-04-08T10:06:05;102274.22;;;9.35;82.15
66381;BME280;53177;52.648;1.214;2023-04-08T10:08:32;102275.25;;;9.59;82.29
66381;BME280;53177;52.648;1.214;2023-04-08T10:10:59;102271.75;;;9.62;81.97
66381;BME280;53177;52.648;1.214;2023-04-08T10:13:26;102269.22;;;9.80;81.97
66381;BME280;53177;52.648;1.214;2023-04-08T10:18:41;102276.19;;;9.69;80.26
66381;BME280;53177;52.648;1.214;2023-04-08T10:23:56;102262.19;;;9.87;80.82
66381;BME280;53177;52.648;1.214;2023-04-08T10:31:42;102263.97;;;9.86;79.94
66381;BME280;53177;52.648;1.214;2023-04-08T10:34:18;102262.91;;;9.55;79.50
66381;BME280;53177;52.648;1.214;2023-04-08T10:36:45;102258.56;;;9.63;80.95
66381;BME280;53177;52.648;1.214;2023-04-08T10:39:12;102263.00;;;9.67;80.50
66381;BME280;53177;52.648;1.214;2023-04-08T10:41:42;102277.09;;;9.72;80.62
66381;BME280;53177;52.648;1.214;2023-04-08T10:44:25;102266.53;;;9.72;81.29
66381;BME280;53177;52.648;1.214;2023-04-08T10:46:52;102267.34;;;9.59;80.56
66381;BME280;53177;52.648;1.214;2023-04-08T10:49:18;102270.81;;;9.54;82.23
66381;BME280;53177;52.648;1.214;2023-04-08T10:51:44;102267.47;;;9.87;82.88
66381;BME280;53177;52.648;1.214;2023-04-08T10:54:15;102269.16;;;9.69;82.11
66381;BME280;53177;52.648;1.214;2023-04-08T10:56:51;102272.72;;;9.74;80.87
66381;BME280;53177;52.648;1.214;2023-04-08T10:59:27;102267.41;;;9.73;81.22
66381;BME280;53177;52.648;1.214;2023-04-08T11:01:53;102266.41;;;9.54;81.24
66381;BME280;53177;52.648;1.214;2023-04-08T11:04:19;102269.16;;;9.68;81.83
66381;BME280;53177;52.648;1.214;2023-04-08T11:06:45;102265.72;;;9.83;81.26
66381;BME280;53177;52.648;1.214;2023-04-08T11:09:12;102263.91;;;9.80;81.89
66381;BME280;53177;52.648;1.214;2023-04-08T11:11:40;102263.91;;;9.77;80.68
66381;BME280;53177;52.648;1.214;2023-04-08T11:14:06;102266.50;;;9.69;80.55
66381;BME280;53177;52.648;1.214;2023-04-08T11:16:32;102270.94;;;9.76;81.38
66381;BME280;53177;52.648;1.214;2023-04-08T11:18:58;102269.13;;;9.66;81.38
66381;BME280;53177;52.648;1.214;2023-04-08T11:21:27;102266.50;;;9.69;80.89
66381;BME280;53177;52.648;1.214;2023-04-08T11:23:54;102266.50;;;9.66;82.10
66381;BME280;53177;52.648;1.214;2023-04-08T11:26:20;102266.56;;;9.77;82.90
66381;BME280;53177;52.648;1.214;2023-04-08T11:28:46;102266.63;;;9.92;82.05
66381;BME280;53177;52.648;1.214;2023-04-08T11:31:15;102263.06;;;9.83;82.20
66381;BME280;53177;52.648;1.214;2023-04-08T11:33:45;102261.31;;;9.88;81.18
66381;BME280;53177;52.648;1.214;2023-04-08T11:36:11;102261.34;;;9.89;81.01
66381;BME280;53177;52.648;1.214;2023-04-08T11:38:39;102266.66;;;9.98;82.57
66381;BME280;53177;52.648;1.214;2023-04-08T11:41:08;102264.13;;;10.15;80.97
66381;BME280;53177;52.648;1.214;2023-04-08T11:43:37;102269.44;;;10.22;80.64
66381;BME280;53177;52.648;1.214;2023-04-08T11:46:09;102273.00;;;10.37;81.34
66381;BME280;53177;52.648;1.214;2023-04-08T11:48:34;102271.19;;;10.19;79.31
66381;BME280;53177;52.648;1.214;2023-04-08T11:51:05;102274.59;;;9.97;78.71
66381;BME280;53177;52.648;1.214;2023-04-08T11:53:33;102268.31;;;9.78;79.16
66381;BME280;53177;52.648;1.214;2023-04-08T11:56:17;102271.09;;;10.05;80.63
66381;BME280;53177;52.648;1.214;2023-04-08T11:58:43;102290.44;;;9.94;81.24
66381;BME280;53177;52.648;1.214;2023-04-08T12:01:09;102286.00;;;9.91;81.37
66381;BME280;53177;52.648;1.214;2023-04-08T12:03:34;102283.28;;;9.71;81.36
66381;BME280;53177;52.648;1.214;2023-04-08T12:06:00;102284.22;;;9.86;82.29
66381;BME280;53177;52.648;1.214;2023-04-08T12:08:25;102283.38;;;9.96;82.37
66381;BME280;53177;52.648;1.214;2023-04-08T12:10:50;102276.28;;;9.87;81.35
66381;BME280;53177;52.648;1.214;2023-04-08T12:13:16;102280.72;;;9.94;80.99
66381;BME280;53177;52.648;1.214;2023-04-08T12:15:41;102281.63;;;9.90;80.92
66381;BME280;53177;52.648;1.214;2023-04-08T12:18:06;102278.09;;;9.94;81.58
66381;BME280;53177;52.648;1.214;2023-04-08T12:20:32;102283.38;;;9.94;80.67
66381;BME280;53177;52.648;1.214;2023-04-08T12:22:57;102272.78;;;9.91;83.29
66381;BME280;53177;52.648;1.214;2023-04-08T12:25:22;102274.50;;;9.78;83.82
66381;BME280;53177;52.648;1.214;2023-04-08T12:27:48;102277.94;;;9.68;81.42
66381;BME280;53177;52.648;1.214;2023-04-08T12:30:16;102277.22;;;9.98;85.66
66381;BME280;53177;52.648;1.214;2023-04-08T12:32:42;102271.97;;;10.06;80.74
66381;BME280;53177;52.648;1.214;2023-04-08T12:35:09;102275.47;;;9.97;80.58
66381;BME280;53177;52.648;1.214;2023-04-08T12:37:35;102269.44;;;10.25;81.55
66381;BME280;53177;52.648;1.214;2023-04-08T12:40:01;102266.78;;;10.18;80.78
66381;BME280;53177;52.648;1.214;2023-04-08T12:42:26;102262.41;;;10.35;81.87
66381;BME280;53177;52.648;1.214;2023-04-08T12:44:52;102262.53;;;10.96;81.61
66381;BME280;53177;52.648;1.214;2023-04-08T12:47:17;102264.28;;;10.91;78.64
66381;BME280;53177;52.648;1.214;2023-04-08T12:49:43;102261.63;;;11.27;76.84
66381;BME280;53177;52.648;1.214;2023-04-08T12:52:08;102259.00;;;11.22;76.13
66381;BME280;53177;52.648;1.214;2023-04-08T12:54:33;102251.06;;;11.18;76.33
66381;BME280;53177;52.648;1.214;2023-04-08T12:56:59;102255.50;;;11.04;75.05
66381;BME280;53177;52.648;1.214;2023-04-08T12:59:25;102253.72;;;11.07;76.83
66381;BME280;53177;52.648;1.214;2023-04-08T13:01:51;102258.06;;;11.49;76.68
66381;BME280;53177;52.648;1.214;2023-04-08T13:04:16;102255.41;;;11.72;77.83
66381;BME280;53177;52.648;1.214;2023-04-08T13:06:42;102250.94;;;11.97;73.05